createdAt,value
2023-02-17T00:01:23.901Z,4.80
2023-02-17T00:03:51.575Z,4.03
2023-02-17T00:06:21.073Z,4.97
2023-02-17T00:08:48.629Z,3.47
2023-02-17T00:11:15.588Z,4.63
2023-02-17T00:13:42.553Z,4.30
2023-02-17T00:16:11.837Z,4.50
2023-02-17T00:18:38.411Z,4.30
2023-02-17T00:21:17.541Z,4.77
2023-02-17T00:23:45.344Z,4.50
2023-02-17T00:26:12.059Z,4.00
2023-02-17T00:28:38.763Z,4.30
2023-02-17T00:31:16.889Z,3.87
2023-02-17T00:33:43.532Z,4.37
2023-02-17T00:36:17.704Z,4.70
2023-02-17T00:38:45.267Z,3.90
2023-02-17T00:41:12.058Z,3.47
2023-02-17T00:43:38.524Z,4.53
2023-02-17T00:46:05.861Z,4.37
2023-02-17T00:48:33.061Z,4.20
2023-02-17T00:50:59.535Z,4.10
2023-02-17T00:53:26.783Z,4.53
2023-02-17T00:55:53.220Z,3.90
2023-02-17T00:58:19.781Z,4.43
2023-02-17T01:00:46.219Z,4.70
2023-02-17T01:03:12.667Z,4.73
2023-02-17T01:05:43.662Z,4.17
2023-02-17T01:08:10.579Z,4.37
2023-02-17T01:10:41.421Z,4.40
2023-02-17T01:13:08.499Z,4.67
2023-02-17T01:15:44.923Z,4.30
2023-02-17T01:18:14.253Z,4.90
2023-02-17T01:20:41.335Z,3.90
2023-02-17T01:23:09.146Z,5.00
2023-02-17T01:25:44.894Z,3.27
2023-02-17T01:28:18.179Z,4.40
2023-02-17T01:30:46.687Z,3.57
2023-02-17T01:33:13.388Z,4.47
2023-02-17T01:35:39.818Z,4.50
2023-02-17T01:38:06.348Z,4.63
2023-02-17T01:40:32.826Z,4.93
2023-02-17T01:42:59.247Z,4.23
2023-02-17T01:45:36.463Z,4.63
2023-02-17T01:48:05.981Z,4.93
2023-02-17T01:50:37.073Z,5.00
2023-02-17T01:53:07.454Z,4.03
2023-02-17T01:55:35.854Z,4.37
2023-02-17T01:58:07.705Z,4.40
2023-02-17T02:00:36.087Z,4.10
2023-02-17T02:03:06.708Z,5.00
2023-02-17T02:05:33.387Z,4.90
2023-02-17T02:08:00.059Z,4.50
2023-02-17T02:10:26.515Z,4.57
2023-02-17T02:12:53.065Z,4.47
2023-02-17T02:15:28.177Z,5.00
2023-02-17T02:18:03.256Z,4.00
2023-02-17T02:20:41.865Z,4.00
2023-02-17T02:23:33.315Z,4.30
2023-02-17T02:26:35.419Z,3.80
2023-02-17T02:29:26.830Z,4.17
2023-02-17T02:32:21.228Z,3.93
2023-02-17T02:34:54.926Z,4.30
2023-02-17T02:37:32.305Z,3.80
2023-02-17T02:40:03.710Z,4.17
2023-02-17T02:42:32.789Z,4.70
2023-02-17T02:44:59.280Z,4.53
2023-02-17T02:47:53.483Z,4.67
2023-02-17T02:50:28.385Z,5.03
2023-02-17T02:53:03.659Z,4.53
2023-02-17T02:55:43.914Z,4.50
2023-02-17T02:58:23.049Z,3.73
2023-02-17T03:01:05.942Z,3.83
2023-02-17T03:04:05.007Z,4.03
2023-02-17T03:06:39.709Z,4.57
2023-02-17T03:09:12.824Z,3.83
2023-02-17T03:11:41.251Z,3.67
2023-02-17T03:14:11.606Z,3.60
2023-02-17T03:16:40.475Z,4.30
2023-02-17T03:19:08.597Z,4.20
2023-02-17T03:21:43.536Z,4.70
2023-02-17T03:24:10.240Z,4.10
2023-02-17T03:26:36.787Z,4.70
2023-02-17T03:29:03.481Z,4.53
2023-02-17T03:31:30.987Z,3.80
2023-02-17T03:33:58.151Z,4.03
2023-02-17T03:36:24.651Z,3.07
2023-02-17T03:38:51.247Z,3.90
2023-02-17T03:41:17.937Z,3.87
2023-02-17T03:43:44.359Z,3.90
2023-02-17T03:46:15.736Z,3.57
2023-02-17T03:48:42.849Z,3.63
2023-02-17T03:51:17.276Z,3.43
2023-02-17T03:53:44.627Z,3.40
2023-02-17T03:56:12.121Z,3.03
2023-02-17T03:58:39.009Z,2.97
2023-02-17T04:01:06.739Z,3.03
2023-02-17T04:03:34.215Z,3.00
2023-02-17T04:06:00.960Z,3.00
2023-02-17T04:08:28.161Z,5.30
2023-02-17T04:10:56.794Z,2.80
2023-02-17T04:13:23.683Z,3.60
2023-02-17T04:15:50.871Z,3.40
2023-02-17T04:18:17.897Z,2.97
2023-02-17T04:20:45.058Z,2.73
2023-02-17T04:23:11.896Z,2.40
2023-02-17T04:25:38.375Z,2.50
2023-02-17T04:28:07.368Z,2.33
2023-02-17T04:30:34.778Z,3.00
2023-02-17T04:33:01.817Z,2.67
2023-02-17T04:35:28.304Z,2.00
2023-02-17T04:37:55.365Z,3.33
2023-02-17T04:40:22.421Z,2.60
2023-02-17T04:42:48.863Z,3.23
2023-02-17T04:45:15.466Z,3.00
2023-02-17T04:47:42.088Z,2.37
2023-02-17T04:50:09.982Z,2.80
2023-02-17T04:52:36.548Z,2.17
2023-02-17T04:55:03.957Z,2.43
2023-02-17T04:57:30.637Z,2.70
2023-02-17T04:59:57.051Z,2.67
2023-02-17T05:02:25.475Z,3.13
2023-02-17T05:04:51.956Z,2.30
2023-02-17T05:07:18.981Z,2.40
2023-02-17T05:09:45.466Z,2.20
2023-02-17T05:12:12.025Z,3.20
2023-02-17T05:14:38.441Z,2.23
2023-02-17T05:17:04.911Z,2.93
2023-02-17T05:19:31.412Z,3.10
2023-02-17T05:21:57.834Z,2.67
2023-02-17T05:24:24.351Z,3.00
2023-02-17T05:26:50.778Z,2.93
2023-02-17T05:29:17.252Z,3.20
2023-02-17T05:31:43.842Z,3.27
2023-02-17T05:34:10.376Z,2.93
2023-02-17T05:36:36.824Z,3.00
2023-02-17T05:39:03.335Z,3.03
2023-02-17T05:41:29.758Z,2.60
2023-02-17T05:43:56.168Z,2.57
2023-02-17T05:46:23.114Z,2.90
2023-02-17T05:48:49.806Z,3.07
2023-02-17T05:51:19.159Z,3.30
2023-02-17T05:53:45.670Z,2.27
2023-02-17T05:56:14.737Z,2.50
2023-02-17T05:58:41.152Z,3.87
2023-02-17T06:01:09.452Z,3.43
2023-02-17T06:03:35.928Z,3.00
2023-02-17T06:06:02.530Z,3.00
2023-02-17T06:08:28.968Z,3.57
2023-02-17T06:10:55.634Z,2.37
2023-02-17T06:13:22.086Z,3.00
2023-02-17T06:15:48.777Z,2.93
2023-02-17T06:18:15.291Z,2.80
2023-02-17T06:20:42.031Z,2.63
2023-02-17T06:23:08.525Z,2.33
2023-02-17T06:25:34.938Z,2.57
2023-02-17T06:28:01.363Z,2.90
2023-02-17T06:30:27.855Z,3.43
2023-02-17T06:32:54.332Z,2.57
2023-02-17T06:35:20.930Z,2.60
2023-02-17T06:37:47.381Z,2.83
2023-02-17T06:40:14.230Z,2.50
2023-02-17T06:42:40.681Z,2.93
2023-02-17T06:45:07.907Z,3.90
2023-02-17T06:47:34.841Z,2.83
2023-02-17T06:50:01.325Z,2.10
2023-02-17T06:52:28.144Z,2.10
2023-02-17T06:54:54.638Z,1.80
2023-02-17T06:57:21.368Z,3.00
2023-02-17T06:59:47.826Z,1.77
2023-02-17T07:02:14.719Z,2.07
2023-02-17T07:04:42.451Z,2.13
2023-02-17T07:07:10.249Z,2.53
2023-02-17T07:09:38.470Z,2.40
2023-02-17T07:12:05.881Z,2.37
2023-02-17T07:14:34.470Z,2.83
2023-02-17T07:17:01.718Z,3.07
2023-02-17T07:19:28.326Z,2.77
2023-02-17T07:21:54.872Z,2.60
2023-02-17T07:24:21.502Z,2.40
2023-02-17T07:26:48.074Z,1.57
2023-02-17T07:29:14.652Z,2.20
2023-02-17T07:31:41.491Z,2.30
2023-02-17T07:34:08.018Z,2.97
2023-02-17T07:36:34.768Z,2.37
2023-02-17T07:39:03.406Z,2.17
2023-02-17T07:41:30.673Z,2.77
2023-02-17T07:43:58.566Z,1.90
2023-02-17T07:46:26.146Z,2.40
2023-02-17T07:48:52.639Z,2.30
2023-02-17T07:51:22.223Z,2.40
2023-02-17T07:53:49.776Z,2.30
2023-02-17T07:56:18.771Z,2.80
2023-02-17T07:58:46.181Z,2.40
2023-02-17T08:01:22.765Z,4.37
2023-02-17T08:03:50.206Z,2.40
2023-02-17T08:06:23.852Z,2.20
2023-02-17T08:09:09.866Z,2.40
2023-02-17T08:11:55.258Z,2.13
2023-02-17T08:14:23.394Z,2.60
2023-02-17T08:16:49.974Z,2.13
2023-02-17T08:19:16.603Z,3.00
2023-02-17T08:21:43.198Z,3.70
2023-02-17T08:24:10.071Z,2.20
2023-02-17T08:26:36.660Z,2.60
2023-02-17T08:29:03.282Z,2.60
2023-02-17T08:31:34.944Z,2.67
2023-02-17T08:34:04.529Z,2.60
2023-02-17T08:36:31.172Z,3.00
2023-02-17T08:38:58.466Z,2.40
2023-02-17T08:41:30.968Z,2.50
2023-02-17T08:44:00.690Z,2.30
2023-02-17T08:46:28.701Z,2.23
2023-02-17T08:48:56.256Z,2.00
2023-02-17T08:51:27.832Z,2.50
2023-02-17T08:53:58.203Z,2.20
2023-02-17T08:56:26.295Z,2.27
2023-02-17T08:58:53.662Z,2.40
2023-02-17T09:01:21.231Z,2.20
2023-02-17T09:03:49.601Z,3.00
2023-02-17T09:06:16.811Z,2.67
2023-02-17T09:08:44.915Z,3.27
2023-02-17T09:11:15.291Z,2.73
2023-02-17T09:13:41.775Z,3.27
2023-02-17T09:16:08.637Z,2.53
2023-02-17T09:18:35.371Z,3.20
2023-02-17T09:21:11.892Z,3.40
2023-02-17T09:23:39.088Z,3.07
2023-02-17T09:26:08.630Z,2.53
2023-02-17T09:28:36.210Z,2.50
2023-02-17T09:31:14.430Z,2.70
2023-02-17T09:33:42.100Z,2.87
2023-02-17T09:36:10.784Z,3.07
2023-02-17T09:38:39.342Z,2.63
2023-02-17T09:41:34.612Z,3.43
2023-02-17T09:44:01.920Z,3.20
2023-02-17T09:47:03.026Z,2.30
2023-02-17T09:49:39.891Z,2.33
2023-02-17T09:52:29.424Z,2.50
2023-02-17T09:55:11.513Z,2.50
2023-02-17T09:57:51.193Z,3.20
2023-02-17T10:00:23.962Z,2.77
2023-02-17T10:03:06.378Z,2.27
2023-02-17T10:05:42.144Z,2.77
2023-02-17T10:08:17.405Z,2.27
2023-02-17T10:10:54.224Z,2.60
2023-02-17T10:13:23.667Z,2.43
2023-02-17T10:15:53.345Z,2.43
2023-02-17T10:18:36.448Z,2.73
2023-02-17T10:21:07.472Z,2.60
2023-02-17T10:23:35.045Z,2.40
2023-02-17T10:26:20.421Z,2.43
2023-02-17T10:28:55.999Z,2.47
2023-02-17T10:31:27.100Z,2.60
2023-02-17T10:34:05.000Z,1.80
2023-02-17T10:36:44.964Z,2.03
2023-02-17T10:39:22.895Z,2.57
2023-02-17T10:41:52.700Z,2.37
2023-02-17T10:44:23.149Z,2.60
2023-02-17T10:46:51.640Z,2.17
2023-02-17T10:49:30.118Z,1.90
2023-02-17T10:52:11.803Z,2.00
2023-02-17T10:54:50.408Z,2.17
2023-02-17T10:57:19.549Z,2.10
2023-02-17T10:59:47.907Z,1.80
2023-02-17T11:02:19.420Z,2.10
2023-02-17T11:04:49.454Z,2.50
2023-02-17T11:07:18.383Z,2.43
2023-02-17T11:09:48.816Z,1.97
2023-02-17T11:12:32.817Z,1.93
2023-02-17T11:14:59.409Z,2.00
2023-02-17T11:17:39.399Z,1.83
2023-02-17T11:20:09.212Z,2.10
2023-02-17T11:22:45.775Z,2.10
2023-02-17T11:25:25.086Z,2.00
2023-02-17T11:27:56.669Z,1.83
2023-02-17T11:30:24.331Z,1.80
2023-02-17T11:32:50.928Z,1.77
2023-02-17T11:35:35.932Z,1.70
2023-02-17T11:38:04.241Z,2.20
2023-02-17T11:40:32.725Z,1.80
2023-02-17T11:43:01.198Z,2.33
2023-02-17T11:45:49.355Z,1.67
2023-02-17T11:48:28.584Z,1.63
2023-02-17T11:51:17.118Z,1.83
2023-02-17T11:54:17.916Z,1.43
2023-02-17T11:56:55.206Z,2.83
2023-02-17T11:59:43.573Z,2.67
2023-02-17T12:02:18.055Z,2.07
2023-02-17T12:04:51.450Z,2.00
2023-02-17T12:07:42.232Z,2.50
2023-02-17T12:10:16.360Z,2.10
2023-02-17T12:13:16.077Z,1.73
2023-02-17T12:15:56.741Z,1.77
2023-02-17T12:18:44.472Z,2.60
2023-02-17T12:21:20.071Z,1.60
2023-02-17T12:24:04.771Z,2.43
2023-02-17T12:26:48.041Z,1.70
2023-02-17T12:29:26.516Z,2.40
2023-02-17T12:32:20.135Z,2.03
2023-02-17T12:34:59.282Z,2.10
2023-02-17T12:37:32.053Z,1.97
2023-02-17T12:40:16.123Z,1.90
2023-02-17T12:42:53.884Z,2.30
2023-02-17T12:45:23.841Z,1.80
2023-02-17T12:47:55.187Z,2.27
2023-02-17T12:50:27.436Z,1.70
2023-02-17T12:52:58.551Z,2.30
2023-02-17T12:55:30.378Z,1.57
2023-02-17T12:58:01.124Z,2.17
2023-02-17T13:00:34.835Z,2.10
2023-02-17T13:03:03.250Z,2.10
2023-02-17T13:05:47.943Z,2.03
2023-02-17T13:08:36.280Z,2.03
2023-02-17T13:11:10.646Z,1.70
2023-02-17T13:13:37.195Z,1.97
2023-02-17T13:16:12.306Z,1.90
2023-02-17T13:18:43.977Z,2.40
2023-02-17T13:21:33.141Z,2.70
2023-02-17T13:24:03.708Z,1.57
2023-02-17T13:26:35.790Z,3.33
2023-02-17T13:29:11.063Z,1.70
2023-02-17T13:31:59.155Z,2.20
2023-02-17T13:34:27.350Z,2.83
2023-02-17T13:36:54.356Z,2.53
2023-02-17T13:39:27.416Z,3.07
2023-02-17T13:41:56.223Z,1.70
2023-02-17T13:44:40.795Z,1.90
2023-02-17T13:47:18.341Z,2.47
2023-02-17T13:49:52.838Z,2.73
2023-02-17T13:52:24.433Z,2.20
2023-02-17T13:54:56.257Z,2.10
2023-02-17T13:57:23.684Z,1.97
2023-02-17T13:59:50.154Z,2.40
2023-02-17T14:02:35.178Z,2.90
2023-02-17T14:05:16.141Z,4.20
2023-02-17T14:07:42.643Z,2.27
2023-02-17T14:10:21.571Z,2.10
2023-02-17T14:12:49.208Z,2.33
2023-02-17T14:15:22.262Z,4.43
2023-02-17T14:17:48.908Z,3.30
2023-02-17T14:20:31.310Z,4.50
2023-02-17T14:23:11.579Z,4.50
2023-02-17T14:25:42.484Z,3.17
2023-02-17T14:28:26.595Z,2.00
2023-02-17T14:30:53.803Z,3.60
2023-02-17T14:33:24.135Z,3.50
2023-02-17T14:36:00.087Z,5.87
2023-02-17T14:38:35.234Z,6.77
2023-02-17T14:41:01.742Z,4.33
2023-02-17T14:43:28.240Z,4.87
2023-02-17T14:45:55.003Z,3.70
2023-02-17T14:48:22.024Z,2.90
2023-02-17T14:50:49.313Z,2.47
2023-02-17T14:53:29.680Z,2.17
2023-02-17T14:56:02.099Z,5.60
2023-02-17T14:58:29.674Z,2.60
2023-02-17T15:00:56.919Z,2.60
2023-02-17T15:03:23.605Z,1.70
2023-02-17T15:05:51.076Z,1.80
2023-02-17T15:08:26.391Z,1.90
2023-02-17T15:10:53.200Z,2.60
2023-02-17T15:13:21.785Z,2.30
2023-02-17T15:15:49.638Z,2.10
2023-02-17T15:18:18.722Z,2.70
2023-02-17T15:20:50.081Z,2.70
2023-02-17T15:23:18.515Z,2.10
2023-02-17T15:25:45.601Z,2.37
2023-02-17T15:28:14.536Z,1.93
2023-02-17T15:30:41.329Z,1.37
2023-02-17T15:33:13.238Z,1.93
2023-02-17T15:35:40.791Z,1.70
2023-02-17T15:38:11.453Z,1.90
2023-02-17T15:40:38.010Z,2.10
2023-02-17T15:43:04.965Z,1.73
2023-02-17T15:45:33.080Z,1.90
2023-02-17T15:48:05.061Z,1.40
2023-02-17T15:50:32.100Z,1.00
2023-02-17T15:52:58.781Z,1.57
2023-02-17T15:55:28.186Z,1.60
2023-02-17T15:57:58.011Z,4.00
2023-02-17T16:00:31.165Z,1.63
2023-02-17T16:02:57.703Z,3.07
2023-02-17T16:05:27.839Z,2.13
2023-02-17T16:07:55.039Z,2.37
2023-02-17T16:10:24.416Z,2.77
2023-02-17T16:12:52.189Z,1.90
2023-02-17T16:15:21.657Z,3.23
2023-02-17T16:17:49.001Z,3.60
2023-02-17T16:20:20.036Z,3.73
2023-02-17T16:22:47.067Z,1.93
2023-02-17T16:25:16.840Z,2.20
2023-02-17T16:27:45.176Z,2.20
2023-02-17T16:30:17.370Z,1.53
2023-02-17T16:32:43.908Z,1.93
2023-02-17T16:35:24.968Z,1.17
2023-02-17T16:37:53.183Z,1.93
2023-02-17T16:40:22.546Z,1.77
2023-02-17T16:42:49.401Z,1.57
2023-02-17T16:45:17.814Z,1.83
2023-02-17T16:47:47.156Z,3.23
2023-02-17T16:50:39.840Z,3.40
2023-02-17T16:53:10.221Z,1.57
2023-02-17T16:55:37.173Z,1.57
2023-02-17T16:58:04.449Z,1.67
2023-02-17T17:00:33.071Z,2.07
2023-02-17T17:02:59.706Z,1.97
2023-02-17T17:05:28.042Z,1.50
2023-02-17T17:07:54.866Z,2.47
2023-02-17T17:10:25.185Z,2.30
2023-02-17T17:12:51.818Z,2.33
2023-02-17T17:15:19.231Z,2.07
2023-02-17T17:17:54.656Z,2.00
2023-02-17T17:20:24.038Z,2.10
2023-02-17T17:22:51.403Z,1.67
2023-02-17T17:25:19.960Z,2.10
2023-02-17T17:27:46.477Z,1.67
2023-02-17T17:30:17.415Z,2.43
2023-02-17T17:32:43.912Z,2.00
2023-02-17T17:35:10.361Z,2.40
2023-02-17T17:37:39.138Z,1.50
2023-02-17T17:40:07.176Z,2.17
2023-02-17T17:42:33.689Z,2.30
2023-02-17T17:45:00.218Z,2.63
2023-02-17T17:47:30.092Z,2.33
2023-02-17T17:49:56.796Z,2.23
2023-02-17T17:52:24.129Z,2.03
2023-02-17T17:54:50.817Z,1.63
2023-02-17T17:57:17.276Z,2.90
2023-02-17T17:59:43.756Z,2.53
2023-02-17T18:02:10.193Z,1.73
2023-02-17T18:04:36.718Z,1.87
2023-02-17T18:07:03.362Z,1.80
2023-02-17T18:09:35.059Z,2.60
2023-02-17T18:12:07.229Z,2.17
2023-02-17T18:14:36.399Z,1.80
2023-02-17T18:17:03.159Z,2.10
2023-02-17T18:19:31.071Z,2.47
2023-02-17T18:21:57.760Z,2.20
2023-02-17T18:24:24.172Z,2.50
2023-02-17T18:26:52.199Z,1.93
2023-02-17T18:29:19.236Z,1.47
2023-02-17T18:31:45.828Z,2.50
2023-02-17T18:34:12.846Z,2.40
2023-02-17T18:36:39.320Z,2.10
2023-02-17T18:39:05.789Z,2.63
2023-02-17T18:41:34.158Z,1.53
2023-02-17T18:44:03.060Z,1.60
2023-02-17T18:46:29.583Z,1.73
2023-02-17T18:48:56.750Z,1.43
2023-02-17T18:51:23.902Z,1.97
2023-02-17T18:53:51.221Z,2.57
2023-02-17T18:56:21.525Z,3.30
2023-02-17T18:58:49.804Z,2.13
2023-02-17T19:01:35.326Z,1.90
2023-02-17T19:04:02.227Z,2.23
2023-02-17T19:06:31.811Z,1.70
2023-02-17T19:09:00.198Z,1.53
2023-02-17T19:11:27.241Z,1.87
2023-02-17T19:13:53.711Z,1.60
2023-02-17T19:16:27.054Z,2.50
2023-02-17T19:18:54.669Z,1.70
2023-02-17T19:21:21.920Z,2.97
2023-02-17T19:23:49.728Z,2.00
2023-02-17T19:26:17.344Z,2.10
2023-02-17T19:28:45.091Z,1.63
2023-02-17T19:31:15.248Z,1.80
2023-02-17T19:33:42.997Z,1.40
2023-02-17T19:36:12.332Z,1.43
2023-02-17T19:38:39.385Z,1.20
2023-02-17T19:41:08.521Z,1.40
2023-02-17T19:43:35.065Z,2.50
2023-02-17T19:46:01.549Z,2.30
2023-02-17T19:48:28.119Z,2.57
2023-02-17T19:51:06.137Z,1.73
2023-02-17T19:53:33.282Z,2.90
2023-02-17T19:56:16.680Z,1.70
2023-02-17T19:58:44.328Z,1.30
2023-02-17T20:01:17.394Z,1.70
2023-02-17T20:03:44.550Z,1.63
2023-02-17T20:06:23.372Z,1.40
2023-02-17T20:08:57.762Z,1.30
2023-02-17T20:11:25.243Z,1.30
2023-02-17T20:13:52.178Z,1.83
2023-02-17T20:16:18.785Z,1.40
2023-02-17T20:18:47.862Z,2.40
2023-02-17T20:21:26.303Z,2.60
2023-02-17T20:23:52.806Z,2.07
2023-02-17T20:26:22.552Z,1.50
2023-02-17T20:28:49.630Z,1.43
2023-02-17T20:31:16.819Z,1.87
2023-02-17T20:33:43.505Z,2.27
2023-02-17T20:36:11.714Z,1.90
2023-02-17T20:38:39.551Z,2.53
2023-02-17T20:41:07.934Z,2.83
2023-02-17T20:43:37.544Z,2.90
2023-02-17T20:46:04.295Z,2.07
2023-02-17T20:48:30.740Z,3.40
2023-02-17T20:50:58.634Z,1.60
2023-02-17T20:53:25.758Z,3.03
2023-02-17T20:55:52.628Z,3.33
2023-02-17T20:58:19.641Z,2.93
2023-02-17T21:00:46.304Z,1.50
2023-02-17T21:03:12.887Z,2.83
2023-02-17T21:05:39.474Z,2.40
2023-02-17T21:08:06.232Z,4.27
2023-02-17T21:10:33.336Z,4.23
2023-02-17T21:12:59.799Z,2.97
2023-02-17T21:15:27.242Z,2.90
2023-02-17T21:17:53.764Z,3.90
2023-02-17T21:20:21.215Z,3.50
2023-02-17T21:22:48.233Z,3.00
2023-02-17T21:25:14.672Z,2.67
2023-02-17T21:27:41.153Z,2.53
2023-02-17T21:30:09.351Z,2.03
2023-02-17T21:32:35.929Z,2.23
2023-02-17T21:35:02.485Z,2.40
2023-02-17T21:37:28.909Z,2.10
2023-02-17T21:39:55.415Z,1.90
2023-02-17T21:42:43.191Z,2.10
2023-02-17T21:45:11.127Z,2.00
2023-02-17T21:47:37.571Z,2.23
2023-02-17T21:50:04.512Z,1.67
2023-02-17T21:52:31.000Z,1.60
2023-02-17T21:54:57.503Z,2.10
2023-02-17T21:57:23.920Z,2.27
2023-02-17T21:59:50.515Z,1.70
2023-02-17T22:02:16.948Z,1.47
2023-02-17T22:04:43.418Z,1.67
2023-02-17T22:07:10.819Z,2.13
2023-02-17T22:09:37.504Z,1.40
2023-02-17T22:12:03.968Z,2.43
2023-02-17T22:14:30.402Z,1.73
2023-02-17T22:16:57.425Z,2.07
2023-02-17T22:19:24.990Z,1.73
2023-02-17T22:21:51.958Z,2.00
2023-02-17T22:24:20.756Z,2.10
2023-02-17T22:26:48.124Z,1.40
2023-02-17T22:29:14.708Z,1.30
2023-02-17T22:31:41.465Z,1.60
2023-02-17T22:34:09.923Z,1.77
2023-02-17T22:36:37.519Z,1.60
2023-02-17T22:39:06.220Z,1.83
2023-02-17T22:41:34.050Z,1.83
2023-02-17T22:44:01.772Z,1.60
2023-02-17T22:46:28.701Z,1.63
2023-02-17T22:48:55.887Z,2.07
2023-02-17T22:51:28.527Z,1.90
2023-02-17T22:53:55.262Z,1.60
2023-02-17T22:56:22.201Z,2.40
2023-02-17T22:58:55.235Z,2.30
2023-02-17T23:01:22.114Z,2.50
2023-02-17T23:03:54.422Z,2.67
2023-02-17T23:06:35.477Z,1.80
2023-02-17T23:09:02.838Z,2.10
2023-02-17T23:11:57.529Z,1.73
2023-02-17T23:14:27.879Z,2.03
2023-02-17T23:16:57.942Z,2.93
2023-02-17T23:19:24.800Z,1.97
2023-02-17T23:21:54.588Z,1.93
2023-02-17T23:24:22.485Z,2.00
2023-02-17T23:26:49.593Z,2.27
2023-02-17T23:29:17.093Z,2.10
2023-02-17T23:31:44.038Z,2.17
2023-02-17T23:34:12.868Z,2.13
2023-02-17T23:36:40.474Z,1.50
2023-02-17T23:39:07.439Z,2.27
2023-02-17T23:41:38.304Z,2.03
2023-02-17T23:44:07.450Z,1.70
2023-02-17T23:46:34.422Z,1.80
2023-02-17T23:49:01.069Z,1.77
2023-02-17T23:51:27.701Z,2.20
2023-02-17T23:53:54.142Z,1.90
2023-02-17T23:56:24.020Z,1.70
2023-02-17T23:58:50.702Z,2.30
